createdAt,value
2018-06-21T00:03:54.913Z,3.50
2018-06-21T00:07:58.773Z,3.30
2018-06-21T00:12:02.544Z,3.57
2018-06-21T00:16:06.247Z,3.30
2018-06-21T00:20:09.777Z,3.50
2018-06-21T00:24:13.941Z,3.60
2018-06-21T00:28:18.119Z,3.03
2018-06-21T00:32:22.346Z,3.40
2018-06-21T00:36:25.968Z,3.57
2018-06-21T00:40:29.553Z,3.47
2018-06-21T00:44:33.066Z,3.43
2018-06-21T00:48:39.035Z,3.30
2018-06-21T00:52:43.053Z,3.67
2018-06-21T00:56:47.286Z,3.20
2018-06-21T01:00:51.165Z,3.27
2018-06-21T01:04:54.792Z,3.43
2018-06-21T01:08:58.443Z,3.10
2018-06-21T01:13:02.127Z,3.10
2018-06-21T01:17:06.433Z,3.53
2018-06-21T01:21:09.975Z,3.60
2018-06-21T01:25:13.944Z,3.10
2018-06-21T01:29:18.406Z,3.20
2018-06-21T01:33:22.221Z,2.97
2018-06-21T01:37:25.778Z,3.33
2018-06-21T01:41:29.292Z,3.27
2018-06-21T01:45:33.031Z,3.03
2018-06-21T01:49:36.634Z,2.80
2018-06-21T01:53:40.284Z,3.20
2018-06-21T01:57:44.248Z,3.30
2018-06-21T02:01:48.187Z,3.17
2018-06-21T02:05:51.712Z,3.30
2018-06-21T02:09:55.273Z,3.30
2018-06-21T02:13:59.057Z,3.33
2018-06-21T02:18:02.821Z,2.97
2018-06-21T02:22:06.368Z,3.10
2018-06-21T02:26:10.007Z,3.20
2018-06-21T02:30:14.115Z,3.50
2018-06-21T02:34:18.325Z,3.40
2018-06-21T02:38:22.073Z,3.17
2018-06-21T02:42:25.719Z,3.23
2018-06-21T02:46:29.293Z,3.20
2018-06-21T02:50:32.952Z,3.47
2018-06-21T02:54:36.952Z,3.37
2018-06-21T02:58:40.509Z,3.50
2018-06-21T03:02:44.501Z,4.17
2018-06-21T03:06:48.383Z,3.90
2018-06-21T03:10:52.048Z,3.40
2018-06-21T03:15:03.180Z,4.00
2018-06-21T03:19:06.703Z,3.60
2018-06-21T03:23:10.218Z,3.70
2018-06-21T03:27:14.507Z,3.87
2018-06-21T03:31:18.499Z,3.70
2018-06-21T03:35:22.011Z,3.50
2018-06-21T03:39:25.541Z,3.80
2018-06-21T03:43:29.075Z,3.93
2018-06-21T03:47:33.198Z,3.60
2018-06-21T03:51:36.351Z,3.47
2018-06-21T03:55:39.915Z,3.30
2018-06-21T03:59:44.379Z,3.60
2018-06-21T04:03:48.403Z,3.40
2018-06-21T04:07:52.225Z,3.77
2018-06-21T04:11:55.869Z,3.90
2018-06-21T04:15:59.427Z,3.50
2018-06-21T04:20:03.148Z,3.80
2018-06-21T04:24:07.059Z,3.57
2018-06-21T04:28:11.756Z,3.97
2018-06-21T04:32:16.083Z,4.00
2018-06-21T04:36:20.307Z,3.77
2018-06-21T04:40:24.180Z,3.63
2018-06-21T04:44:28.241Z,3.60
2018-06-21T04:48:32.080Z,3.80
2018-06-21T04:52:36.015Z,3.90
2018-06-21T04:56:39.554Z,3.87
2018-06-21T05:00:44.638Z,3.83
2018-06-21T05:04:48.956Z,3.87
2018-06-21T05:08:53.365Z,4.10
2018-06-21T05:12:56.893Z,4.10
2018-06-21T05:17:00.851Z,3.93
2018-06-21T05:21:04.702Z,4.00
2018-06-21T05:25:08.380Z,3.77
2018-06-21T05:29:12.136Z,4.13
2018-06-21T05:33:16.009Z,3.97
2018-06-21T05:37:19.856Z,4.27
2018-06-21T05:41:31.064Z,4.60
2018-06-21T05:45:35.311Z,4.57
2018-06-21T05:49:38.947Z,4.60
2018-06-21T05:53:44.981Z,4.03
2018-06-21T05:57:49.574Z,3.90
2018-06-21T06:01:53.216Z,3.97
2018-06-21T06:05:56.893Z,3.70
2018-06-21T06:10:00.475Z,4.20
2018-06-21T06:14:04.244Z,3.77
2018-06-21T06:18:08.014Z,3.33
2018-06-21T06:22:11.575Z,3.30
2018-06-21T06:26:15.586Z,3.07
2018-06-21T06:30:19.606Z,3.07
2018-06-21T06:34:23.167Z,2.80
2018-06-21T06:38:26.745Z,2.67
2018-06-21T06:42:30.521Z,2.70
2018-06-21T06:46:34.239Z,2.90
2018-06-21T06:50:37.811Z,2.97
2018-06-21T06:54:41.536Z,2.87
2018-06-21T06:58:45.340Z,2.70
2018-06-21T07:02:49.217Z,2.80
2018-06-21T07:06:53.040Z,2.92
2018-06-21T07:10:56.840Z,2.93
2018-06-21T07:15:00.377Z,2.80
2018-06-21T07:19:04.953Z,3.30
2018-06-21T07:23:08.709Z,2.50
2018-06-21T07:27:13.217Z,3.20
2018-06-21T07:31:16.909Z,3.07
2018-06-21T07:35:20.614Z,2.70
2018-06-21T07:39:24.415Z,3.10
2018-06-21T07:43:28.115Z,3.23
2018-06-21T07:47:31.837Z,3.30
2018-06-21T07:51:35.588Z,4.03
2018-06-21T07:55:39.155Z,3.37
2018-06-21T07:59:43.235Z,3.47
2018-06-21T08:03:47.178Z,3.30
2018-06-21T08:07:50.871Z,3.33
2018-06-21T08:11:54.420Z,3.93
2018-06-21T08:15:58.186Z,4.27
2018-06-21T08:20:01.846Z,4.00
2018-06-21T08:24:07.040Z,3.67
2018-06-21T08:28:10.588Z,4.53
2018-06-21T08:32:14.400Z,4.73
2018-06-21T08:36:18.106Z,6.07
2018-06-21T08:40:21.696Z,6.70
2018-06-21T08:44:25.338Z,7.03
2018-06-21T08:48:28.868Z,6.47
2018-06-21T08:52:34.649Z,7.20
2018-06-21T08:56:38.243Z,7.50
2018-06-21T09:00:41.885Z,8.07
2018-06-21T09:04:45.908Z,7.60
2018-06-21T09:08:49.764Z,8.03
2018-06-21T09:12:53.391Z,8.03
2018-06-21T09:16:56.875Z,8.10
2018-06-21T09:21:00.877Z,8.13
2018-06-21T09:25:04.459Z,6.83
2018-06-21T09:29:08.054Z,6.97
2018-06-21T09:33:11.620Z,6.77
2018-06-21T09:37:15.534Z,7.50
2018-06-21T09:41:24.663Z,7.47
2018-06-21T09:47:39.519Z,7.73
2018-06-21T09:51:43.511Z,7.23
2018-06-21T09:55:48.110Z,8.17
2018-06-21T09:59:51.614Z,6.80
2018-06-21T10:03:55.170Z,7.43
2018-06-21T10:07:58.698Z,7.57
2018-06-21T10:12:02.447Z,7.33
2018-06-21T10:16:06.066Z,7.70
2018-06-21T10:20:10.167Z,6.90
2018-06-21T10:24:14.068Z,5.47
2018-06-21T10:28:19.234Z,5.33
2018-06-21T10:32:22.958Z,5.50
2018-06-21T10:36:27.233Z,4.70
2018-06-21T10:40:30.806Z,5.70
2018-06-21T10:44:34.522Z,4.20
2018-06-21T10:48:38.221Z,4.33
2018-06-21T10:52:42.231Z,3.17
2018-06-21T10:56:46.231Z,3.07
2018-06-21T11:00:49.926Z,3.37
2018-06-21T11:04:53.473Z,2.50
2018-06-21T11:09:00.434Z,2.70
2018-06-21T11:13:04.235Z,2.50
2018-06-21T11:17:07.896Z,2.20
2018-06-21T11:21:11.460Z,2.20
2018-06-21T11:25:23.102Z,2.20
2018-06-21T11:29:26.631Z,1.67
2018-06-21T11:33:32.375Z,2.00
2018-06-21T11:37:35.918Z,1.90
2018-06-21T11:41:39.509Z,1.90
2018-06-21T11:45:43.229Z,2.17
2018-06-21T11:49:51.600Z,2.23
2018-06-21T11:53:55.176Z,2.30
2018-06-21T11:58:03.110Z,1.70
2018-06-21T12:02:12.458Z,1.93
2018-06-21T12:06:16.200Z,1.70
2018-06-21T12:10:19.954Z,1.63
2018-06-21T12:14:24.386Z,1.80
2018-06-21T12:18:27.586Z,1.60
2018-06-21T12:22:31.209Z,1.73
2018-06-21T12:26:34.871Z,1.60
2018-06-21T12:30:38.496Z,1.50
2018-06-21T12:34:42.068Z,1.80
2018-06-21T12:38:49.307Z,1.57
2018-06-21T12:42:52.825Z,1.40
2018-06-21T12:46:56.361Z,2.00
2018-06-21T12:50:59.887Z,1.83
2018-06-21T12:55:03.676Z,1.60
2018-06-21T12:59:07.275Z,1.90
2018-06-21T13:03:10.829Z,2.20
2018-06-21T13:07:14.514Z,1.83
2018-06-21T13:11:37.040Z,2.27
2018-06-21T13:15:40.738Z,1.93
2018-06-21T13:19:44.803Z,1.70
2018-06-21T13:23:48.595Z,1.77
2018-06-21T13:27:57.776Z,1.70
2018-06-21T13:32:02.165Z,1.90
2018-06-21T13:36:05.844Z,1.67
2018-06-21T13:40:09.420Z,1.90
2018-06-21T13:44:13.107Z,2.00
2018-06-21T13:48:16.884Z,1.70
2018-06-21T13:52:20.273Z,2.10
2018-06-21T13:56:23.923Z,2.10
2018-06-21T14:00:27.464Z,1.57
2018-06-21T14:04:31.015Z,1.60
2018-06-21T14:08:35.030Z,1.70
2018-06-21T14:12:38.326Z,1.50
2018-06-21T14:16:41.930Z,1.53
2018-06-21T14:20:45.925Z,1.30
2018-06-21T14:24:49.884Z,1.70
2018-06-21T14:28:55.192Z,1.37
2018-06-21T14:32:58.763Z,1.10
2018-06-21T14:37:04.769Z,1.30
2018-06-21T14:41:08.348Z,1.43
2018-06-21T14:45:11.947Z,1.30
2018-06-21T14:49:16.601Z,1.17
2018-06-21T14:53:21.152Z,2.00
2018-06-21T14:57:24.723Z,1.13
2018-06-21T15:01:33.002Z,1.10
2018-06-21T15:05:36.676Z,0.97
2018-06-21T15:09:47.256Z,1.47
2018-06-21T15:13:52.529Z,1.53
2018-06-21T15:17:56.114Z,1.30
2018-06-21T15:22:01.947Z,1.23
2018-06-21T15:26:05.695Z,1.60
2018-06-21T15:30:15.926Z,1.67
2018-06-21T15:34:21.995Z,1.63
2018-06-21T15:38:26.647Z,1.43
2018-06-21T15:42:30.234Z,1.43
2018-06-21T15:46:33.898Z,1.30
2018-06-21T15:50:38.752Z,1.47
2018-06-21T15:54:42.342Z,1.60
2018-06-21T15:58:46.156Z,1.40
2018-06-21T16:02:50.232Z,1.43
2018-06-21T16:06:54.202Z,1.70
2018-06-21T16:10:58.642Z,1.87
2018-06-21T16:15:07.592Z,1.80
2018-06-21T16:19:11.366Z,1.30
2018-06-21T16:23:15.410Z,1.63
2018-06-21T16:27:25.656Z,1.67
2018-06-21T16:31:29.317Z,1.93
2018-06-21T16:35:33.619Z,1.60
2018-06-21T16:39:38.680Z,1.40
2018-06-21T16:43:42.759Z,1.57
2018-06-21T16:47:47.059Z,1.37
2018-06-21T16:51:51.536Z,1.77
2018-06-21T16:56:05.379Z,1.60
2018-06-21T17:00:16.107Z,1.53
2018-06-21T17:04:35.542Z,1.40
2018-06-21T17:08:40.623Z,1.27
2018-06-21T17:12:45.496Z,1.70
2018-06-21T17:16:53.074Z,1.50
2018-06-21T17:21:03.535Z,1.57
2018-06-21T17:25:08.423Z,1.77
2018-06-21T17:29:14.742Z,1.40
2018-06-21T17:33:18.598Z,2.00
2018-06-21T17:37:22.479Z,1.67
2018-06-21T17:41:36.625Z,1.40
2018-06-21T17:45:46.491Z,1.60
2018-06-21T17:49:50.284Z,1.20
2018-06-21T17:53:53.807Z,1.67
2018-06-21T17:57:59.594Z,1.40
2018-06-21T18:02:14.475Z,1.70
2018-06-21T18:06:18.188Z,1.60
2018-06-21T18:10:22.214Z,1.23
2018-06-21T18:14:25.927Z,2.20
2018-06-21T18:18:29.544Z,1.40
2018-06-21T18:22:33.263Z,1.63
2018-06-21T18:26:36.857Z,1.63
2018-06-21T18:30:42.243Z,1.83
2018-06-21T18:34:46.502Z,1.33
2018-06-21T18:38:50.935Z,1.43
2018-06-21T18:42:54.642Z,1.57
2018-06-21T18:46:58.349Z,1.53
2018-06-21T18:51:05.810Z,1.13
2018-06-21T18:55:09.515Z,1.00
2018-06-21T18:59:14.540Z,1.30
2018-06-21T19:03:18.866Z,1.23
2018-06-21T19:07:28.038Z,1.40
2018-06-21T19:11:42.028Z,1.47
2018-06-21T19:15:46.302Z,1.70
2018-06-21T19:19:52.316Z,1.60
2018-06-21T19:24:01.358Z,1.30
2018-06-21T19:28:07.594Z,1.60
2018-06-21T19:32:11.237Z,1.47
2018-06-21T19:36:15.334Z,1.67
2018-06-21T19:40:19.119Z,1.60
2018-06-21T19:44:22.983Z,1.20
2018-06-21T19:48:27.792Z,1.40
2018-06-21T19:52:33.368Z,1.60
2018-06-21T19:56:36.923Z,1.50
2018-06-21T20:00:44.020Z,1.60
2018-06-21T20:04:50.431Z,1.70
2018-06-21T20:08:54.656Z,1.53
2018-06-21T20:13:02.443Z,1.70
2018-06-21T20:17:06.709Z,1.77
2018-06-21T20:21:13.786Z,1.43
2018-06-21T20:25:21.519Z,1.70
2018-06-21T20:29:25.936Z,1.77
2018-06-21T20:33:31.770Z,1.30
2018-06-21T20:37:35.861Z,1.30
2018-06-21T20:41:39.997Z,1.30
2018-06-21T20:45:50.970Z,1.10
2018-06-21T20:49:54.786Z,1.60
2018-06-21T20:54:02.695Z,1.83
2018-06-21T20:58:06.369Z,1.80
2018-06-21T21:02:09.545Z,1.47
2018-06-21T21:06:13.207Z,1.70
2018-06-21T21:10:18.188Z,1.80
2018-06-21T21:14:22.354Z,1.47
2018-06-21T21:18:27.993Z,1.70
2018-06-21T21:22:31.594Z,2.00
2018-06-21T21:26:37.386Z,1.70
2018-06-21T21:30:46.266Z,1.43
2018-06-21T21:34:49.944Z,1.30
2018-06-21T21:38:53.674Z,1.30
2018-06-21T21:42:57.177Z,1.00
2018-06-21T21:47:02.776Z,1.70
2018-06-21T21:51:06.498Z,1.73
2018-06-21T21:55:10.844Z,1.60
2018-06-21T21:59:15.096Z,1.50
2018-06-21T22:03:18.992Z,1.60
2018-06-21T22:07:22.583Z,1.60
2018-06-21T22:11:44.768Z,1.70
2018-06-21T22:15:49.128Z,1.70
2018-06-21T22:19:52.879Z,1.83
2018-06-21T22:23:56.530Z,1.50
2018-06-21T22:28:06.515Z,1.90
2018-06-21T22:32:10.036Z,1.80
2018-06-21T22:36:14.904Z,1.77
2018-06-21T22:40:18.932Z,1.80
2018-06-21T22:44:22.614Z,1.80
2018-06-21T22:48:28.226Z,1.57
2018-06-21T22:52:32.187Z,1.67
2018-06-21T22:56:36.359Z,2.37
2018-06-21T23:00:40.286Z,2.40
2018-06-21T23:04:44.098Z,1.97
2018-06-21T23:08:48.060Z,2.03
2018-06-21T23:12:51.739Z,2.17
2018-06-21T23:16:56.492Z,1.90
2018-06-21T23:21:00.000Z,2.03
2018-06-21T23:25:04.573Z,2.20
2018-06-21T23:29:09.446Z,1.90
2018-06-21T23:33:13.370Z,2.03
2018-06-21T23:37:17.268Z,1.87
2018-06-21T23:41:21.111Z,1.83
2018-06-21T23:45:24.644Z,1.90
2018-06-21T23:49:33.784Z,2.33
2018-06-21T23:53:37.310Z,1.87
2018-06-21T23:57:40.837Z,1.77
